Time;durP1;ratioP1;P1;durP2;ratioP2;P2;SDS_P1;SDS_P2;PMS_P1;PMS_P2;Temp;Humidity;BMP_temperature;BMP_pressure;BME280_temperature;BME280_humidity;BME280_pressure;Samples;Min_cycle;Max_cycle;Signal;HPM_P1;HPM_P2
2020/12/25 00:00:18;;;;;;;2.33;0.88;;;;;;;23.55;35.97;101872.34;4945734;28;112873;-57
2020/12/25 00:02:43;;;;;;;1.05;0.65;;;;;;;23.55;36.19;101879.47;4937705;28;100118;-57
2020/12/25 00:05:09;;;;;;;2.08;0.70;;;;;;;23.54;36.21;101880.34;4948824;28;100188;-57
2020/12/25 00:07:34;;;;;;;1.50;0.50;;;;;;;23.54;36.09;101886.56;4946517;28;126561;-57
2020/12/25 00:10:00;;;;;;;1.58;0.73;;;;;;;23.54;36.01;101886.56;4943872;28;109374;-57
2020/12/25 00:12:25;;;;;;;2.08;0.90;;;;;;;23.55;36.02;101892.78;4962487;28;96926;-57
2020/12/25 00:14:50;;;;;;;1.90;0.60;;;;;;;23.53;36.20;101898.13;4953422;28;126775;-57
2020/12/25 00:17:17;;;;;;;1.33;0.80;;;;;;;23.54;36.05;101899.00;4947917;28;127066;-56
2020/12/25 00:19:42;;;;;;;1.48;0.60;;;;;;;23.54;36.43;101894.53;4947118;28;96709;-57
2020/12/25 00:22:08;;;;;;;2.13;0.73;;;;;;;23.54;36.19;101902.53;4950773;28;97583;-56
2020/12/25 00:24:33;;;;;;;1.67;0.70;;;;;;;23.53;36.39;101898.13;4939758;28;117496;-56
2020/12/25 00:26:59;;;;;;;1.77;0.70;;;;;;;23.53;36.54;101902.59;4944998;28;98050;-56
2020/12/25 00:29:24;;;;;;;2.53;1.00;;;;;;;23.53;36.64;101910.59;4955431;28;97228;-57
2020/12/25 00:31:50;;;;;;;1.85;0.60;;;;;;;23.53;36.69;101924.75;4948516;28;110597;-57
2020/12/25 00:34:15;;;;;;;1.42;0.65;;;;;;;23.53;36.70;101924.75;4945053;28;97611;-56
2020/12/25 00:36:42;;;;;;;1.23;0.70;;;;;;;23.53;36.46;101934.56;4943613;28;120550;-56
2020/12/25 00:39:11;;;;;;;1.30;0.68;;;;;;;23.54;36.32;101936.28;4951651;28;96899;-56
2020/12/25 00:41:44;;;;;;;1.40;0.80;;;;;;;23.52;36.70;101938.97;4954147;28;96938;-56
2020/12/25 00:44:09;;;;;;;1.65;0.70;;;;;;;23.54;36.40;101936.28;4949458;28;97437;-56
2020/12/25 00:46:37;;;;;;;1.55;0.55;;;;;;;23.54;36.68;101938.94;4961296;28;98340;-56
2020/12/25 00:49:03;;;;;;;1.73;0.65;;;;;;;23.53;36.47;101938.06;4946278;28;96638;-56
2020/12/25 00:51:29;;;;;;;1.95;0.63;;;;;;;23.52;36.80;101949.63;4951009;28;96658;-56
2020/12/25 00:53:55;;;;;;;1.45;0.70;;;;;;;23.53;36.43;101945.19;4956559;28;98718;-56
2020/12/25 00:56:27;;;;;;;1.25;0.57;;;;;;;23.53;36.74;101951.41;4948255;28;98613;-56
2020/12/25 00:58:53;;;;;;;1.95;0.70;;;;;;;23.53;36.66;101954.06;4956992;28;96807;-56
2020/12/25 01:01:24;;;;;;;1.23;0.65;;;;;;;23.53;36.97;101945.19;4959156;28;97134;-56
2020/12/25 01:03:49;;;;;;;1.67;0.55;;;;;;;23.54;36.59;101952.25;4951318;28;97436;-56
2020/12/25 01:06:19;;;;;;;1.42;0.60;;;;;;;23.54;37.06;101945.13;4949323;28;97090;-56
2020/12/25 01:08:45;;;;;;;1.20;0.50;;;;;;;23.55;36.63;101954.03;4949834;28;97467;-56
2020/12/25 01:11:11;;;;;;;1.27;0.60;;;;;;;23.54;36.72;101947.78;4944959;28;96915;-56
2020/12/25 01:13:37;;;;;;;0.70;0.40;;;;;;;23.54;37.11;101950.47;4944177;28;97509;-56
2020/12/25 01:16:15;;;;;;;1.17;0.60;;;;;;;23.54;37.25;101954.91;4946126;28;97378;-56
2020/12/25 01:18:41;;;;;;;1.10;0.60;;;;;;;23.54;36.79;101961.13;4946921;28;96766;-57
2020/12/25 01:21:06;;;;;;;1.40;0.50;;;;;;;23.54;36.98;101958.44;4940918;28;107259;-56
2020/12/25 01:23:32;;;;;;;1.30;0.70;;;;;;;23.55;36.83;101964.66;4943844;28;97627;-56
2020/12/25 01:25:57;;;;;;;0.93;0.60;;;;;;;23.54;37.11;101966.44;4946366;28;111528;-56
2020/12/25 01:28:23;;;;;;;1.05;0.50;;;;;;;23.54;37.03;101973.56;4957134;28;96822;-56
2020/12/25 01:30:48;;;;;;;0.63;0.45;;;;;;;23.54;37.11;101977.09;4962201;28;97722;-56
2020/12/25 01:33:13;;;;;;;1.10;0.45;;;;;;;23.54;37.30;101982.41;4943586;28;100173;-57
2020/12/25 01:35:39;;;;;;;1.05;0.60;;;;;;;23.54;37.07;101981.53;4951807;28;125611;-58
2020/12/25 01:38:04;;;;;;;1.10;0.40;;;;;;;23.54;37.32;101986.88;4950441;28;96691;-56
2020/12/25 01:40:30;;;;;;;0.63;0.40;;;;;;;23.53;36.97;101996.66;4961536;28;96774;-56
2020/12/25 01:42:55;;;;;;;1.23;0.63;;;;;;;23.53;37.40;102002.00;4937510;28;127291;-56
2020/12/25 01:45:21;;;;;;;1.25;0.57;;;;;;;23.52;37.17;102002.88;4945596;28;98335;-56
2020/12/25 01:47:46;;;;;;;1.00;0.50;;;;;;;23.52;37.07;102010.88;4962982;28;96745;-56
2020/12/25 01:50:12;;;;;;;1.55;0.70;;;;;;;23.53;37.26;102011.78;4944652;28;111650;-56
2020/12/25 01:52:38;;;;;;;1.63;0.52;;;;;;;23.52;37.21;102012.66;4944606;28;127433;-56
2020/12/25 01:55:04;;;;;;;1.52;0.43;;;;;;;23.53;37.21;102014.44;4966326;28;97410;-56
2020/12/25 01:57:31;;;;;;;0.95;0.45;;;;;;;23.53;37.43;102022.44;4951518;28;101152;-56
2020/12/25 01:59:56;;;;;;;1.55;0.70;;;;;;;23.53;37.26;102027.75;4949284;28;111791;-56
2020/12/25 02:02:23;;;;;;;0.98;0.47;;;;;;;23.52;37.40;102034.84;4950244;28;99829;-56
2020/12/25 02:04:49;;;;;;;0.95;0.50;;;;;;;23.52;37.49;102025.97;4945133;28;126504;-56
2020/12/25 02:07:14;;;;;;;1.83;0.50;;;;;;;23.52;37.40;102034.84;4945908;28;112437;-56
2020/12/25 02:09:40;;;;;;;1.38;0.50;;;;;;;23.53;37.18;102033.06;4941746;28;96745;-56
2020/12/25 02:12:05;;;;;;;0.90;0.52;;;;;;;23.53;37.34;102035.75;4941888;28;113271;-57
2020/12/25 02:14:30;;;;;;;1.73;0.73;;;;;;;23.52;37.21;102039.31;4927050;28;123050;-56
2020/12/25 02:16:56;;;;;;;1.30;0.60;;;;;;;23.53;37.42;102043.72;4941234;28;96836;-56
2020/12/25 02:19:21;;;;;;;0.65;0.35;;;;;;;23.53;37.42;102051.72;4947175;28;96737;-56
2020/12/25 02:21:47;;;;;;;1.02;0.40;;;;;;;23.52;37.61;102049.94;4949552;28;97605;-56
2020/12/25 02:24:12;;;;;;;1.42;0.60;;;;;;;23.52;37.40;102053.47;4954873;28;97266;-56
2020/12/25 02:26:38;;;;;;;2.95;2.75;;;;;;;23.52;37.22;102055.28;4970897;22;112907;-58
2020/12/25 02:29:03;;;;;;;1.02;0.50;;;;;;;23.52;37.34;102061.47;4976032;28;112496;-59
2020/12/25 02:31:28;;;;;;;0.73;0.43;;;;;;;23.52;37.21;102068.59;4977264;28;97864;-59
2020/12/25 02:33:54;;;;;;;0.80;0.50;;;;;;;23.52;37.37;102074.78;4975467;28;126541;-58
2020/12/25 02:36:19;;;;;;;1.35;0.52;;;;;;;23.52;37.67;102073.91;4976646;28;97481;-58
2020/12/25 02:38:45;;;;;;;1.20;0.50;;;;;;;23.53;37.35;102081.00;4973334;28;96948;-59
2020/12/25 02:41:10;;;;;;;1.05;0.60;;;;;;;23.52;37.54;102082.78;4973363;28;128119;-59
2020/12/25 02:43:36;;;;;;;1.45;0.50;;;;;;;23.52;37.57;102084.56;4977018;28;97286;-59
2020/12/25 02:46:01;;;;;;;1.08;0.70;;;;;;;23.52;37.72;102093.44;4977527;28;96895;-58
2020/12/25 02:48:26;;;;;;;1.20;0.47;;;;;;;23.52;37.66;102097.88;4976811;28;111704;-59
2020/12/25 02:50:52;;;;;;;1.27;0.50;;;;;;;23.51;37.40;102089.03;4975305;28;130042;-58
2020/12/25 02:53:17;;;;;;;1.05;0.50;;;;;;;23.52;37.53;102097.88;4976675;28;97289;-59
2020/12/25 02:55:43;;;;;;;0.80;0.50;;;;;;;23.51;37.49;102089.03;4975987;28;110727;-59
2020/12/25 02:58:08;;;;;;;0.70;0.60;;;;;;;23.51;37.60;102094.34;4973938;28;108933;-59
2020/12/25 03:00:33;;;;;;;1.13;0.60;;;;;;;23.50;37.36;102087.25;4976920;28;97500;-58
2020/12/25 03:02:59;;;;;;;1.40;0.95;;;;;;;23.51;37.68;102090.78;4975373;28;126288;-59
2020/12/25 03:05:24;;;;;;;1.10;0.40;;;;;;;23.51;37.66;102088.13;4976516;28;112002;-58
2020/12/25 03:07:50;;;;;;;1.17;0.70;;;;;;;23.50;37.86;102078.41;4977412;28;96725;-59
2020/12/25 03:10:15;;;;;;;1.25;0.63;;;;;;;23.50;37.50;102076.59;4975720;28;126617;-58
2020/12/25 03:12:41;;;;;;;1.23;0.45;;;;;;;23.51;37.67;102077.47;4975841;28;117229;-59
2020/12/25 03:15:06;;;;;;;0.77;0.43;;;;;;;23.51;37.83;102091.69;4972982;28;97120;-59
2020/12/25 03:17:31;;;;;;;0.60;0.40;;;;;;;23.50;37.49;102084.59;4976353;28;113153;-59
2020/12/25 03:19:57;;;;;;;0.98;0.45;;;;;;;23.50;37.44;102089.91;4975545;28;126968;-59
2020/12/25 03:22:22;;;;;;;1.00;0.55;;;;;;;23.50;37.76;102086.41;4976629;28;97107;-59
2020/12/25 03:24:48;;;;;;;1.15;0.65;;;;;;;23.49;37.63;102096.16;4974219;28;112042;-58
2020/12/25 03:27:13;;;;;;;0.60;0.40;;;;;;;23.49;37.90;102093.47;4975283;28;108190;-58
2020/12/25 03:29:39;;;;;;;0.90;0.45;;;;;;;23.49;37.69;102089.94;4975780;28;98958;-59
2020/12/25 03:32:04;;;;;;;1.15;0.52;;;;;;;23.49;37.64;102093.47;4975217;28;126449;-59
2020/12/25 03:34:29;;;;;;;1.02;0.40;;;;;;;23.49;37.52;102095.28;4975194;28;113086;-59
2020/12/25 03:36:55;;;;;;;0.90;0.50;;;;;;;23.49;37.47;102103.25;4982699;28;98834;-59
2020/12/25 03:39:21;;;;;;;0.90;0.50;;;;;;;23.48;37.44;102115.72;4974876;28;126655;-59
2020/12/25 03:41:46;;;;;;;1.05;0.75;;;;;;;23.48;37.76;102105.06;4973498;28;125236;-59
2020/12/25 03:44:11;;;;;;;0.70;0.40;;;;;;;23.48;37.67;102104.19;4974515;28;96710;-59
2020/12/25 03:46:37;;;;;;;1.00;0.60;;;;;;;23.47;37.65;102107.75;4975426;28;110363;-58
2020/12/25 03:49:03;;;;;;;1.27;0.40;;;;;;;23.47;37.51;102105.97;4975468;28;125240;-58
2020/12/25 03:51:29;;;;;;;0.90;0.50;;;;;;;23.49;37.88;102111.25;4972958;28;98569;-59
2020/12/25 03:53:54;;;;;;;1.08;0.60;;;;;;;23.47;37.88;102113.94;4974543;28;113108;-58
2020/12/25 03:56:19;;;;;;;0.75;0.50;;;;;;;23.48;37.44;102114.84;4976082;28;111588;-59
2020/12/25 03:58:45;;;;;;;1.23;0.70;;;;;;;23.48;37.51;102114.84;4972963;28;97713;-59
2020/12/25 04:01:10;;;;;;;1.15;0.50;;;;;;;23.49;37.71;102119.25;4972255;28;113674;-59
2020/12/25 04:03:36;;;;;;;0.90;0.50;;;;;;;23.48;37.49;102115.72;4974001;28;114239;-59
2020/12/25 04:06:01;;;;;;;1.25;0.60;;;;;;;23.49;37.63;102121.91;4976286;28;96662;-58
2020/12/25 04:08:26;;;;;;;0.60;0.43;;;;;;;23.48;37.69;102110.38;4974408;28;98006;-59
2020/12/25 04:10:52;;;;;;;1.23;0.50;;;;;;;23.48;37.76;102110.38;4974195;28;127748;-59
2020/12/25 04:13:17;;;;;;;0.82;0.40;;;;;;;23.48;37.39;102110.38;4973334;28;111697;-59
2020/12/25 04:15:43;;;;;;;1.73;0.68;;;;;;;23.49;37.88;102119.25;4974477;28;101175;-58
2020/12/25 04:18:08;;;;;;;0.90;0.40;;;;;;;23.48;37.84;102115.72;4974691;28;127167;-59
2020/12/25 04:20:34;;;;;;;1.00;0.52;;;;;;;23.48;37.67;102120.16;4974880;28;127921;-58
2020/12/25 04:22:59;;;;;;;1.00;1.00;;;;;;;23.48;37.79;102120.16;4972048;28;111880;-59
2020/12/25 04:25:24;;;;;;;0.95;0.52;;;;;;;23.48;37.90;102117.50;4973609;28;96881;-58
2020/12/25 04:27:50;;;;;;;1.30;0.50;;;;;;;23.48;37.80;102125.50;4973637;28;127045;-59
2020/12/25 04:30:15;;;;;;;0.65;0.43;;;;;;;23.48;37.65;102129.03;4974435;28;101135;-58
2020/12/25 04:32:41;;;;;;;1.55;0.50;;;;;;;23.48;37.87;102142.34;4974595;28;112694;-59
2020/12/25 04:35:07;;;;;;;0.80;0.40;;;;;;;23.48;37.67;102125.50;4975740;28;96850;-59
2020/12/25 04:37:32;;;;;;;1.73;0.57;;;;;;;23.47;37.77;102140.56;4974044;28;111081;-58
2020/12/25 04:39:59;;;;;;;1.13;0.60;;;;;;;23.47;37.71;102145.91;4973654;28;126538;-58
2020/12/25 04:42:25;;;;;;;1.30;0.50;;;;;;;23.47;37.41;102137.91;4976571;28;96725;-59
2020/12/25 04:44:51;;;;;;;1.65;0.60;;;;;;;23.47;37.77;102140.56;4975474;28;96786;-58
2020/12/25 04:47:16;;;;;;;0.75;0.40;;;;;;;23.46;37.50;102149.50;4975298;28;104350;-58
2020/12/25 04:49:42;;;;;;;1.20;0.60;;;;;;;23.46;37.79;102149.50;4974417;28;126766;-58
2020/12/25 04:52:07;;;;;;;0.90;0.40;;;;;;;23.47;37.54;102153.88;4974943;28;96663;-58
2020/12/25 04:54:33;;;;;;;0.80;0.50;;;;;;;23.47;37.43;102150.34;4974134;28;112815;-58
2020/12/25 04:57:01;;;;;;;0.90;0.43;;;;;;;23.46;37.43;102152.16;4973941;28;107081;-57
2020/12/25 04:59:30;;;;;;;0.55;0.40;;;;;;;23.47;37.45;102161.00;4975629;28;97385;-58
2020/12/25 05:01:56;;;;;;;0.65;0.40;;;;;;;23.46;37.40;102160.13;4975291;28;98293;-57
2020/12/25 05:04:23;;;;;;;0.82;0.40;;;;;;;23.46;37.47;102161.91;4974613;28;110126;-51
2020/12/25 05:06:52;;;;;;;0.98;0.60;;;;;;;23.47;37.70;102163.66;4974901;28;97617;-51
2020/12/25 05:09:20;;;;;;;0.77;0.43;;;;;;;23.47;37.76;102166.34;4956822;28;97175;-57
2020/12/25 05:11:52;;;;;;;0.80;0.50;;;;;;;23.46;37.49;102176.13;4975229;28;97196;-57
2020/12/25 05:14:17;;;;;;;1.02;0.40;;;;;;;23.47;37.46;102179.66;4972637;28;96673;-58
2020/12/25 05:16:43;;;;;;;0.90;0.50;;;;;;;23.45;37.51;102174.34;4972190;28;124571;-58
2020/12/25 05:19:08;;;;;;;0.40;0.30;;;;;;;23.45;37.59;102179.69;4973982;28;127075;-58
2020/12/25 05:21:37;;;;;;;0.70;0.43;;;;;;;23.45;37.77;102192.13;4971813;28;96677;-58
2020/12/25 05:24:02;;;;;;;1.08;0.50;;;;;;;23.45;37.58;102193.00;4972624;28;96956;-59
2020/12/25 05:26:28;;;;;;;0.93;0.40;;;;;;;23.45;37.60;102194.78;4974235;28;127285;-58
2020/12/25 05:28:53;;;;;;;1.02;0.40;;;;;;;23.44;37.50;102187.69;4972562;28;126734;-58
2020/12/25 05:31:19;;;;;;;0.50;0.32;;;;;;;23.44;37.71;102195.69;4956219;28;111903;-57
2020/12/25 05:33:49;;;;;;;0.50;0.30;;;;;;;23.45;37.59;102198.31;4975227;28;96797;-58
2020/12/25 05:36:15;;;;;;;1.50;0.55;;;;;;;23.44;37.56;102199.25;4968712;28;97613;-58
2020/12/25 05:38:45;;;;;;;1.38;0.40;;;;;;;23.45;37.75;102203.63;4975275;28;97438;-59
2020/12/25 05:41:11;;;;;;;0.70;0.40;;;;;;;23.46;37.72;102208.06;4974030;28;96931;-58
2020/12/25 05:43:36;;;;;;;0.50;0.40;;;;;;;23.45;37.19;102200.97;4972726;28;96960;-58
2020/12/25 05:46:02;;;;;;;0.55;0.40;;;;;;;23.46;37.40;102199.19;4973485;28;126938;-58
2020/12/25 05:48:27;;;;;;;0.65;0.45;;;;;;;23.46;37.44;102204.50;4973384;28;126570;-58
2020/12/25 05:50:52;;;;;;;0.65;0.40;;;;;;;23.47;37.55;102206.28;4974296;28;100061;-58
2020/12/25 05:53:18;;;;;;;0.50;0.30;;;;;;;23.46;37.26;102208.06;4976100;28;96713;-58
2020/12/25 05:55:44;;;;;;;0.95;0.40;;;;;;;23.47;37.59;102212.47;4977833;28;98207;-58
2020/12/25 05:58:12;;;;;;;0.82;0.40;;;;;;;23.47;37.13;102220.47;4977419;28;97371;-58
2020/12/25 06:00:38;;;;;;;0.63;0.40;;;;;;;23.46;37.62;102213.41;4978118;28;96783;-58
2020/12/25 06:03:03;;;;;;;0.93;0.93;;;;;;;23.46;37.51;102220.47;4975453;28;96867;-58
2020/12/25 06:05:29;;;;;;;1.13;0.55;;;;;;;23.46;37.21;102220.47;4975796;28;126897;-58
2020/12/25 06:07:56;;;;;;;0.70;0.30;;;;;;;23.45;37.62;102224.06;4974187;28;126278;-58
2020/12/25 06:10:22;;;;;;;1.13;0.70;;;;;;;23.46;37.45;102233.78;4976343;28;96985;-58
2020/12/25 06:12:48;;;;;;;0.68;0.30;;;;;;;23.45;37.31;102232.06;4978453;28;96828;-58
2020/12/25 06:15:33;;;;;;;0.73;0.40;;;;;;;23.43;37.59;102236.53;4976217;28;116576;-58
2020/12/25 06:18:02;;;;;;;1.08;0.40;;;;;;;23.45;37.52;102232.94;4970336;28;103875;-58
2020/12/25 06:20:27;;;;;;;1.38;0.93;;;;;;;23.44;37.33;102241.84;4975119;28;97272;-58
2020/12/25 06:22:53;;;;;;;0.32;0.32;;;;;;;23.44;37.25;102241.84;4977915;28;101547;-58
2020/12/25 06:25:19;;;;;;;0.50;0.40;;;;;;;23.45;37.62;102243.56;4974689;28;128187;-58
2020/12/25 06:27:49;;;;;;;0.68;0.35;;;;;;;23.45;37.59;102240.91;4958417;28;97207;-58
2020/12/25 06:30:22;;;;;;;0.77;0.40;;;;;;;23.44;37.43;102248.94;4977266;28;96652;-58
2020/12/25 06:32:48;;;;;;;1.17;0.30;;;;;;;23.45;37.49;102258.69;4976409;28;97239;-58
2020/12/25 06:35:13;;;;;;;0.95;0.40;;;;;;;23.44;37.26;102255.16;4976153;28;118285;-58
2020/12/25 06:37:38;;;;;;;0.43;0.32;;;;;;;23.44;37.46;102259.59;4973718;28;126500;-58
2020/12/25 06:40:05;;;;;;;0.63;0.32;;;;;;;23.43;37.46;102253.38;4974721;28;111887;-58
2020/12/25 06:42:34;;;;;;;1.15;0.40;;;;;;;23.43;37.48;102256.06;4976821;28;108043;-58
2020/12/25 06:45:00;;;;;;;2.22;0.50;;;;;;;23.43;37.48;102249.84;4974501;28;97572;-58
2020/12/25 06:47:32;;;;;;;0.77;0.40;;;;;;;23.43;37.06;102260.50;4977650;28;97192;-58
2020/12/25 06:49:58;;;;;;;1.73;0.57;;;;;;;23.44;37.21;102263.16;4974542;28;96835;-58
2020/12/25 06:52:30;;;;;;;0.50;0.30;;;;;;;23.42;37.28;102267.59;4975430;28;103799;-58
2020/12/25 06:54:56;;;;;;;0.60;0.30;;;;;;;23.43;37.16;102264.03;4953847;28;97918;-58
2020/12/25 06:57:27;;;;;;;0.20;0.20;;;;;;;23.42;37.06;102270.25;4976501;28;97225;-58
2020/12/25 06:59:53;;;;;;;0.60;0.47;;;;;;;23.43;37.32;102272.03;4977736;28;96808;-58
2020/12/25 07:02:20;;;;;;;0.30;0.30;;;;;;;23.43;37.29;102271.16;4977385;28;96990;-58
2020/12/25 07:04:47;;;;;;;0.50;0.30;;;;;;;23.42;37.07;102275.59;4976125;28;98515;-58
2020/12/25 07:07:12;;;;;;;0.63;0.30;;;;;;;23.43;37.48;102290.66;4959216;28;97492;-58
2020/12/25 07:09:38;;;;;;;0.65;0.32;;;;;;;23.42;36.92;102283.56;4977705;28;97243;-58
2020/12/25 07:12:14;;;;;;;0.88;0.52;;;;;;;23.43;37.09;102289.78;4975771;28;110608;-50
2020/12/25 07:14:41;;;;;;;0.80;0.30;;;;;;;23.43;37.19;102273.81;4973644;28;109879;-49
2020/12/25 07:17:06;;;;;;;0.40;0.30;;;;;;;23.44;37.27;102283.53;4976292;28;97256;-49
2020/12/25 07:19:35;;;;;;;0.50;0.30;;;;;;;23.43;37.22;102287.13;4976989;28;96723;-49
2020/12/25 07:22:01;;;;;;;0.65;0.40;;;;;;;23.43;37.03;102297.78;4974843;28;96777;-49
2020/12/25 07:24:26;;;;;;;0.40;0.40;;;;;;;23.44;36.84;102291.53;4973918;28;98618;-48
2020/12/25 07:26:55;;;;;;;1.30;0.38;;;;;;;23.44;36.85;102287.09;4975761;28;106526;-49
2020/12/25 07:29:20;;;;;;;0.45;0.30;;;;;;;23.45;36.91;102293.31;4974813;28;96951;-49
2020/12/25 07:31:47;;;;;;;0.70;0.50;;;;;;;23.44;37.05;102294.19;4976115;28;96899;-49
2020/12/25 07:34:21;;;;;;;1.20;0.68;;;;;;;23.45;37.21;102301.28;4974622;28;97763;-49
2020/12/25 07:36:48;;;;;;;0.80;0.40;;;;;;;23.45;37.04;102301.28;4973406;28;97292;-49
2020/12/25 07:39:13;;;;;;;1.13;1.00;;;;;;;23.44;37.19;102303.09;4971491;28;96821;-49
2020/12/25 07:41:39;;;;;;;0.77;0.52;;;;;;;23.45;36.83;102299.50;4974206;28;96781;-49
2020/12/25 07:44:04;;;;;;;0.75;0.40;;;;;;;23.45;37.06;102301.28;4975506;28;97540;-49
2020/12/25 07:46:30;;;;;;;0.43;0.30;;;;;;;23.43;37.00;102303.97;4975301;28;97155;-48
2020/12/25 07:48:57;;;;;;;0.70;0.35;;;;;;;23.43;37.15;102309.31;4977405;28;96609;-49
2020/12/25 07:51:23;;;;;;;0.40;0.30;;;;;;;23.43;37.01;102303.13;4974064;28;98070;-48
2020/12/25 07:53:55;;;;;;;0.50;0.30;;;;;;;23.43;36.99;102305.78;4975923;28;97530;-49
2020/12/25 07:56:22;;;;;;;1.13;0.40;;;;;;;23.43;36.97;102308.44;4975006;28;97341;-49
2020/12/25 07:58:48;;;;;;;0.47;0.30;;;;;;;23.42;37.14;102304.00;4976874;28;96869;-49
2020/12/25 08:01:15;;;;;;;0.60;0.30;;;;;;;23.42;36.64;102312.00;4976814;28;96852;-58
2020/12/25 08:03:42;;;;;;;0.60;0.32;;;;;;;23.41;37.17;102313.78;4975691;28;97617;-58
2020/12/25 08:06:07;;;;;;;0.93;0.40;;;;;;;23.43;37.01;102319.09;4957915;28;126565;-58
2020/12/25 08:08:33;;;;;;;0.65;0.30;;;;;;;23.41;37.01;102321.78;4972028;28;112827;-58
2020/12/25 08:10:59;;;;;;;0.80;0.43;;;;;;;23.42;36.59;102327.97;4972848;28;97019;-58
2020/12/25 08:13:24;;;;;;;0.82;0.45;;;;;;;23.41;36.88;102327.09;4974418;28;127168;-58
2020/12/25 08:15:50;;;;;;;0.50;0.30;;;;;;;23.41;36.96;102337.75;4956377;28;126814;-58
2020/12/25 08:18:16;;;;;;;0.88;0.50;;;;;;;23.41;36.75;102331.56;4974228;28;97318;-58
2020/12/25 08:20:42;;;;;;;1.35;0.57;;;;;;;23.41;36.68;102329.75;4974697;28;97415;-58
2020/12/25 08:23:07;;;;;;;1.25;1.15;;;;;;;23.40;36.46;102328.00;4972482;28;97897;-58
2020/12/25 08:25:33;;;;;;;1.23;0.40;;;;;;;23.41;36.89;102336.88;4974402;28;97474;-58
2020/12/25 08:27:58;;;;;;;1.08;0.40;;;;;;;23.40;36.82;102341.31;4989579;22;103887;-56
2020/12/25 08:30:24;;;;;;;1.00;0.50;;;;;;;23.40;36.77;102335.97;4993842;28;97100;-57
2020/12/25 08:32:59;;;;;;;1.00;0.30;;;;;;;23.41;36.65;102336.88;4963055;28;97429;-56
2020/12/25 08:35:27;;;;;;;1.08;0.45;;;;;;;23.41;36.77;102332.41;4958060;28;97262;-57
2020/12/25 08:38:02;;;;;;;0.47;0.30;;;;;;;23.41;36.81;102336.88;4959110;28;96945;-56
2020/12/25 08:40:36;;;;;;;0.70;0.40;;;;;;;23.38;36.45;102341.31;4958985;28;96805;-56
2020/12/25 08:43:09;;;;;;;1.10;0.93;;;;;;;23.40;36.84;102349.28;4958994;28;97556;-56
2020/12/25 08:45:35;;;;;;;1.10;0.38;;;;;;;23.41;36.75;102352.84;4961426;28;97195;-56
2020/12/25 08:48:05;;;;;;;0.30;0.30;;;;;;;23.40;36.70;102346.63;4963703;28;97202;-56
2020/12/25 08:50:30;;;;;;;0.85;0.43;;;;;;;23.41;36.62;102358.19;4961831;28;109981;-56
2020/12/25 08:53:12;;;;;;;0.98;0.40;;;;;;;23.38;36.67;102365.28;4960006;28;97592;-56
2020/12/25 08:55:37;;;;;;;0.50;0.28;;;;;;;23.42;36.69;102370.56;4959097;28;96971;-56
2020/12/25 08:58:03;;;;;;;1.15;0.40;;;;;;;23.41;36.65;102369.69;4959602;28;113406;-56
2020/12/25 09:00:29;;;;;;;1.13;0.50;;;;;;;23.41;36.49;102371.50;4958741;28;112997;-57
2020/12/25 09:02:58;;;;;;;0.70;0.35;;;;;;;23.41;36.33;102376.81;4957510;28;129172;-56
2020/12/25 09:05:23;;;;;;;0.82;0.40;;;;;;;23.41;36.42;102372.38;4960161;28;97155;-57
2020/12/25 09:07:50;;;;;;;0.68;0.30;;;;;;;23.41;36.77;102379.47;4961099;28;109524;-56
2020/12/25 09:10:15;;;;;;;0.52;0.32;;;;;;;23.41;36.69;102382.16;4954694;28;96810;-56
2020/12/25 09:12:40;;;;;;;0.50;0.30;;;;;;;23.41;36.57;102380.34;4957956;28;120734;-56
2020/12/25 09:15:06;;;;;;;1.10;0.50;;;;;;;23.42;36.26;102386.53;4962669;28;126550;-56
2020/12/25 09:17:31;;;;;;;1.05;0.43;;;;;;;23.42;36.46;102378.56;4961364;28;97496;-56
2020/12/25 09:19:57;;;;;;;1.20;0.40;;;;;;;23.43;36.50;102372.34;4961198;28;111500;-56
2020/12/25 09:22:22;;;;;;;0.80;0.25;;;;;;;23.42;36.18;102375.91;4963854;28;126910;-56
2020/12/25 09:24:48;;;;;;;1.23;0.55;;;;;;;23.42;36.12;102376.75;4953332;28;99645;-56
2020/12/25 09:27:14;;;;;;;1.08;0.47;;;;;;;23.42;36.20;102382.09;4967900;28;111976;-56
2020/12/25 09:29:39;;;;;;;0.90;0.40;;;;;;;23.41;36.05;102380.34;4971526;28;112364;-56
2020/12/25 09:32:05;;;;;;;1.20;0.40;;;;;;;23.42;36.13;102375.91;4969480;28;99179;-56
2020/12/25 09:34:30;;;;;;;1.15;0.30;;;;;;;23.41;36.36;102382.16;4958311;28;107176;-56
2020/12/25 09:36:55;;;;;;;0.80;0.40;;;;;;;23.40;35.87;102381.25;4975170;28;97469;-56
2020/12/25 09:39:21;;;;;;;1.10;0.50;;;;;;;23.40;36.29;102377.72;4967456;28;97005;-56
2020/12/25 09:41:48;;;;;;;0.90;0.30;;;;;;;23.40;35.85;102391.03;4973958;28;126882;-56
2020/12/25 09:44:13;;;;;;;1.50;0.60;;;;;;;23.40;36.00;102391.03;4972952;28;111643;-56
2020/12/25 09:46:42;;;;;;;1.00;0.40;;;;;;;23.38;36.17;102383.94;4974014;28;96909;-56
2020/12/25 09:49:07;;;;;;;1.30;0.50;;;;;;;23.38;35.88;102389.25;4975368;28;117532;-56
2020/12/25 09:51:33;;;;;;;0.63;0.32;;;;;;;23.37;36.14;102383.97;4972111;28;126934;-56
2020/12/25 09:53:58;;;;;;;1.20;0.50;;;;;;;23.37;36.02;102390.19;4969561;28;98388;-56
2020/12/25 09:56:25;;;;;;;1.25;0.50;;;;;;;23.38;36.15;102389.25;4969926;28;117138;-56
2020/12/25 09:58:50;;;;;;;1.20;0.65;;;;;;;23.36;35.84;102385.75;4973012;28;116395;-56
2020/12/25 10:01:16;;;;;;;1.40;0.43;;;;;;;23.36;35.54;102396.38;4974712;28;97464;-57
2020/12/25 10:03:41;;;;;;;1.17;0.50;;;;;;;23.36;35.94;102393.72;4970235;28;127941;-56
2020/12/25 10:06:07;;;;;;;2.30;0.43;;;;;;;23.36;35.36;102382.22;4968301;28;118171;-57
2020/12/25 10:08:32;;;;;;;4.47;0.90;;;;;;;23.34;35.02;102386.69;4971520;28;97230;-58
2020/12/25 10:10:57;;;;;;;4.68;1.00;;;;;;;23.30;34.46;102388.53;4972042;28;126863;-57
2020/12/25 10:13:24;;;;;;;3.58;0.93;;;;;;;23.26;33.67;102384.16;4974399;28;123449;-57
2020/12/25 10:15:49;;;;;;;3.00;0.80;;;;;;;23.20;33.91;102381.56;4975030;28;96882;-57
2020/12/25 10:18:15;;;;;;;6.80;0.95;;;;;;;23.15;33.56;102375.44;4974538;28;96903;-57
2020/12/25 10:20:40;;;;;;;4.22;1.08;;;;;;;23.13;33.53;102387.91;4973577;28;126852;-57
2020/12/25 10:23:06;;;;;;;4.82;1.50;;;;;;;23.13;33.56;102382.56;4957428;28;97352;-57
2020/12/25 10:25:31;;;;;;;3.28;1.02;;;;;;;23.11;33.31;102382.59;4963474;28;116910;-57
2020/12/25 10:27:58;;;;;;;6.25;1.00;;;;;;;23.12;33.60;102383.47;4969592;28;116655;-56
2020/12/25 10:30:23;;;;;;;4.10;1.02;;;;;;;23.12;33.13;102388.78;4972161;28;99975;-57
2020/12/25 10:32:48;;;;;;;4.45;0.90;;;;;;;23.12;33.21;102391.44;4988113;28;126519;-56
2020/12/25 10:35:14;;;;;;;2.70;0.80;;;;;;;23.12;33.53;102388.78;4971907;28;118071;-57
2020/12/25 10:37:39;;;;;;;2.85;0.90;;;;;;;23.11;33.00;102392.38;4971872;28;96752;-56
2020/12/25 10:40:05;;;;;;;8.35;1.00;;;;;;;23.11;32.81;102403.00;4972237;28;126840;-56
2020/12/25 10:42:30;;;;;;;3.63;1.20;;;;;;;23.05;31.64;102403.09;4972980;28;127208;-57
2020/12/25 10:44:56;;;;;;;3.72;1.05;;;;;;;22.91;30.96;102403.28;4975335;28;96848;-57
2020/12/25 10:47:21;;;;;;;8.65;1.15;;;;;;;22.74;30.49;102401.72;4971718;28;117103;-58
2020/12/25 10:49:47;;;;;;;5.35;1.38;;;;;;;22.42;29.72;102395.06;4973025;28;126953;-57
2020/12/25 10:52:12;;;;;;;6.65;1.48;;;;;;;22.07;30.24;102395.44;4972456;28;97292;-58
2020/12/25 10:54:37;;;;;;;4.43;1.20;;;;;;;21.89;31.13;102392.94;4969772;28;117035;-58
2020/12/25 10:57:03;;;;;;;7.10;1.20;;;;;;;21.79;31.36;102398.34;4968721;28;109558;-58
2020/12/25 10:59:28;;;;;;;5.70;1.27;;;;;;;21.77;31.13;102392.19;4936007;28;126471;-57
2020/12/25 11:01:54;;;;;;;3.22;1.30;;;;;;;21.74;30.95;102389.56;4947156;28;103542;-57
2020/12/25 11:04:19;;;;;;;6.18;1.42;;;;;;;21.70;31.14;102387.81;4973099;28;109726;-57
2020/12/25 11:06:45;;;;;;;3.75;1.00;;;;;;;21.68;31.57;102387.84;4968075;28;112043;-50
2020/12/25 11:09:10;;;;;;;6.72;1.10;;;;;;;21.71;31.98;102391.34;4975569;28;98149;-51
2020/12/25 11:11:38;;;;;;;4.78;1.00;;;;;;;21.77;32.22;102397.50;4970795;28;97181;-49
